FVDA weather

Dawsons Airport
Mvurwi, Mashonaland Central Province, Zimbabwe

Public forecast

Using degrees Celsius for public forecast. Weather courtesy of forecast.io.

Closest aviation weather report (METAR) to Dawsons Airport

Closest report is Robert Gabriel Mugabe International Airport, 56.8 nm (105.2 km) SSE. Retrieved 2020/02/23 08:00 UTC (25 minutes ago):

FVRG 230800Z 29004KT 200V360 9999 FEW020 BKN300 26/19 Q1020 NOSIG

Closest aviation forecast (TAF) to Dawsons Airport

Closest forecast is Robert Gabriel Mugabe International Airport, 56.8 nm (105.2 km) SSE. Retrieved 2020/02/23 06:00 UTC (2 hours ago):

TAF FVRG 230400Z 2306/2412 04006KTFEW008 BKN300 BECMG 2307/2309 9999 SCT030 BECMG 2310/2312 BKN050TCU PROB30 TEMPO 2312/2318 9000 -TSRA FEW045CB SCT050 BKN080 FM232000 CAVOK BECMG 2404/2406 9999 BKN008 BECMG 2408/2410 9999 SCT040TCU